createdAt,value
2023-04-11T00:00:02.610Z,95855.78
2023-04-11T00:02:41.287Z,95835.63
2023-04-11T00:05:08.827Z,95830.09
2023-04-11T00:07:35.892Z,95792.22
2023-04-11T00:10:07.263Z,95816.06
2023-04-11T00:12:41.075Z,95812.00
2023-04-11T00:15:16.377Z,95817.22
2023-04-11T00:17:49.215Z,95810.13
2023-04-11T00:20:18.548Z,95811.69
2023-04-11T00:22:51.106Z,95810.38
2023-04-11T00:25:20.103Z,95789.31
2023-04-11T00:27:49.336Z,95797.25
2023-04-11T00:30:20.992Z,95804.59
2023-04-11T00:32:52.620Z,95801.56
2023-04-11T00:35:21.986Z,95792.38
2023-04-11T00:37:56.442Z,95784.28
2023-04-11T00:40:25.405Z,95796.78
2023-04-11T00:42:55.703Z,95777.97
2023-04-11T00:45:22.747Z,95776.88
2023-04-11T00:47:52.940Z,95771.16
2023-04-11T00:50:22.508Z,95759.97
2023-04-11T00:52:58.779Z,95744.06
2023-04-11T00:55:28.993Z,95744.47
2023-04-11T00:57:58.183Z,95745.94
2023-04-11T01:00:25.937Z,95740.94
2023-04-11T01:02:55.385Z,95736.72
2023-04-11T01:05:25.476Z,95743.09
2023-04-11T01:07:55.048Z,95751.75
2023-04-11T01:10:30.910Z,95756.13
2023-04-11T01:13:01.656Z,95760.53
2023-04-11T01:15:35.588Z,95766.97
2023-04-11T01:18:09.220Z,95753.53
2023-04-11T01:20:39.941Z,95764.47
2023-04-11T01:23:08.773Z,95763.63
2023-04-11T01:25:36.131Z,95759.00
2023-04-11T01:28:08.886Z,95752.69
2023-04-11T01:30:38.066Z,95744.19
2023-04-11T01:33:07.497Z,95728.53
2023-04-11T01:35:37.060Z,95724.13
2023-04-11T01:38:09.015Z,95725.16
2023-04-11T01:40:39.328Z,95706.47
2023-04-11T01:43:11.430Z,95700.78
2023-04-11T01:45:41.184Z,95711.78
2023-04-11T01:48:10.406Z,95703.78
2023-04-11T01:50:42.041Z,95723.38
2023-04-11T01:53:14.184Z,95711.88
2023-04-11T01:55:40.974Z,95725.56
2023-04-11T01:58:07.794Z,95742.44
2023-04-11T02:00:37.157Z,95735.34
2023-04-11T02:03:06.431Z,95720.38
2023-04-11T02:05:36.172Z,95711.88
2023-04-11T02:08:06.174Z,95709.09
2023-04-11T02:10:37.397Z,95700.50
2023-04-11T02:13:04.486Z,95690.53
2023-04-11T02:15:40.013Z,95675.75
2023-04-11T02:18:11.808Z,95680.13
2023-04-11T02:20:43.520Z,95672.31
2023-04-11T02:23:12.962Z,95674.56
2023-04-11T02:25:44.487Z,95655.88
2023-04-11T02:28:11.291Z,95650.44
2023-04-11T02:30:40.522Z,95654.91
2023-04-11T02:33:09.784Z,95653.59
2023-04-11T02:35:41.343Z,95639.13
2023-04-11T02:38:08.144Z,95648.63
2023-04-11T02:40:34.829Z,95655.13
2023-04-11T02:43:11.790Z,95633.78
2023-04-11T02:45:42.895Z,95620.31
2023-04-11T02:48:11.395Z,95627.06
2023-04-11T02:50:43.399Z,95616.94
2023-04-11T02:53:12.690Z,95608.41
2023-04-11T02:55:51.908Z,95624.47
2023-04-11T02:58:21.314Z,95626.84
2023-04-11T03:00:51.847Z,95614.16
2023-04-11T03:03:23.281Z,95615.00
2023-04-11T03:05:52.687Z,95599.25
2023-04-11T03:08:25.335Z,95611.13
2023-04-11T03:10:59.481Z,95596.75
2023-04-11T03:13:34.052Z,95604.16
2023-04-11T03:16:06.987Z,95612.16
2023-04-11T03:18:36.197Z,95602.69
2023-04-11T03:21:08.290Z,95608.69
2023-04-11T03:23:40.572Z,95598.66
2023-04-11T03:26:07.682Z,95593.69
2023-04-11T03:28:37.213Z,95603.88
2023-04-11T03:31:09.877Z,95588.72
2023-04-11T03:33:39.856Z,95595.97
2023-04-11T03:36:13.747Z,95588.97
2023-04-11T03:38:41.466Z,95582.56
2023-04-11T03:41:10.809Z,95576.13
2023-04-11T03:43:40.011Z,95596.16
2023-04-11T03:46:09.633Z,95592.09
2023-04-11T03:48:43.026Z,95590.00
2023-04-11T03:51:09.978Z,95571.34
2023-04-11T03:53:45.658Z,95564.84
2023-04-11T03:56:32.659Z,95581.72
2023-04-11T03:59:04.372Z,95576.78
2023-04-11T04:01:47.078Z,95550.41
2023-04-11T04:04:16.920Z,95563.38
2023-04-11T04:06:51.316Z,95550.53
2023-04-11T04:09:23.527Z,95557.78
2023-04-11T04:11:57.671Z,95551.31
2023-04-11T04:14:34.997Z,95551.97
2023-04-11T04:17:02.050Z,95551.25
2023-04-11T04:19:32.215Z,95552.09
2023-04-11T04:22:02.192Z,95545.63
2023-04-11T04:24:39.721Z,95547.72
2023-04-11T04:27:18.468Z,95552.59
2023-04-11T04:29:58.045Z,95559.28
2023-04-11T04:32:48.873Z,95562.16
2023-04-11T04:35:20.971Z,95575.75
2023-04-11T04:37:51.031Z,95582.16
2023-04-11T04:40:33.204Z,95593.63
2023-04-11T04:43:09.247Z,95593.75
2023-04-11T04:45:44.889Z,95588.00
2023-04-11T04:48:20.974Z,95585.84
2023-04-11T04:50:52.640Z,95577.53
2023-04-11T04:53:22.145Z,95590.56
2023-04-11T04:55:56.591Z,95586.91
2023-04-11T04:58:27.616Z,95578.88
2023-04-11T05:00:56.276Z,95572.34
2023-04-11T05:03:34.793Z,95588.06
2023-04-11T05:06:11.737Z,95590.88
2023-04-11T05:08:39.793Z,95583.63
2023-04-11T05:11:09.283Z,95584.34
2023-04-11T05:13:39.095Z,95598.72
2023-04-11T05:16:11.256Z,95584.41
2023-04-11T05:18:38.102Z,95592.94
2023-04-11T05:21:09.865Z,95592.94
2023-04-11T05:23:43.789Z,95597.19
2023-04-11T05:26:15.679Z,95598.66
2023-04-11T05:28:42.739Z,95598.28
2023-04-11T05:31:17.170Z,95609.03
2023-04-11T05:33:46.463Z,95595.31
2023-04-11T05:36:18.275Z,95604.53
2023-04-11T05:38:50.140Z,95604.81
2023-04-11T05:41:19.216Z,95596.09
2023-04-11T05:43:48.595Z,95610.22
2023-04-11T05:46:20.005Z,95613.69
2023-04-11T05:48:54.605Z,95607.88
2023-04-11T05:51:26.707Z,95605.53
2023-04-11T05:53:58.534Z,95592.56
2023-04-11T05:56:25.888Z,95595.44
2023-04-11T05:58:52.705Z,95609.09
2023-04-11T06:01:24.051Z,95612.41
2023-04-11T06:03:58.483Z,95617.22
2023-04-11T06:06:28.192Z,95622.81
2023-04-11T06:08:57.462Z,95632.06
2023-04-11T06:11:28.224Z,95628.47
2023-04-11T06:13:59.367Z,95649.22
2023-04-11T06:16:32.762Z,95629.38
2023-04-11T06:19:01.917Z,95633.56
2023-04-11T06:21:32.372Z,95629.69
2023-04-11T06:24:08.482Z,95628.44
2023-04-11T06:26:40.065Z,95633.41
2023-04-11T06:29:07.733Z,95647.78
2023-04-11T06:31:37.063Z,95645.88
2023-04-11T06:34:11.116Z,95647.34
2023-04-11T06:36:42.827Z,95655.66
2023-04-11T06:39:16.820Z,95657.91
2023-04-11T06:41:43.676Z,95652.66
2023-04-11T06:44:10.987Z,95660.06
2023-04-11T06:46:37.790Z,95653.06
2023-04-11T06:49:07.474Z,95655.25
2023-04-11T06:51:36.972Z,95659.97
2023-04-11T06:54:08.563Z,95685.06
2023-04-11T06:56:42.543Z,95674.94
2023-04-11T06:59:19.680Z,95670.59
2023-04-11T07:01:49.990Z,95670.38
2023-04-11T07:04:22.199Z,95659.63
2023-04-11T07:06:52.225Z,95653.28
2023-04-11T07:09:21.539Z,95662.97
2023-04-11T07:11:51.029Z,95669.94
2023-04-11T07:14:20.106Z,95671.84
2023-04-11T07:16:49.329Z,95679.72
2023-04-11T07:19:23.990Z,95680.88
2023-04-11T07:21:53.347Z,95692.00
2023-04-11T07:24:26.216Z,95688.31
2023-04-11T07:26:58.623Z,95689.16
2023-04-11T07:29:28.754Z,95685.66
2023-04-11T07:32:00.213Z,95698.88
2023-04-11T07:34:29.560Z,95692.56
2023-04-11T07:37:01.301Z,95696.66
2023-04-11T07:39:28.274Z,95713.31
2023-04-11T07:41:57.376Z,95730.28
2023-04-11T07:44:24.194Z,95719.00
2023-04-11T07:46:53.581Z,95726.59
2023-04-11T07:49:20.378Z,95748.22
2023-04-11T07:51:51.949Z,95745.78
2023-04-11T07:54:21.003Z,95758.00
2023-04-11T07:56:52.961Z,95761.53
2023-04-11T07:59:22.285Z,95759.25
2023-04-11T08:01:57.643Z,95750.44
2023-04-11T08:04:27.192Z,95748.88
2023-04-11T08:07:00.886Z,95761.59
2023-04-11T08:09:30.065Z,95770.16
2023-04-11T08:11:59.768Z,95768.78
2023-04-11T08:14:26.545Z,95778.66
2023-04-11T08:16:56.258Z,95786.38
2023-04-11T08:19:23.121Z,95785.50
2023-04-11T08:21:53.230Z,95781.56
2023-04-11T08:24:22.383Z,95798.84
2023-04-11T08:26:56.751Z,95798.13
2023-04-11T08:29:28.319Z,95801.53
2023-04-11T08:32:00.747Z,95805.59
2023-04-11T08:34:32.572Z,95804.22
2023-04-11T08:37:01.631Z,95802.50
2023-04-11T08:39:31.395Z,95798.56
2023-04-11T08:42:06.190Z,95796.38
2023-04-11T08:44:33.416Z,95797.56
2023-04-11T08:47:03.310Z,95794.72
2023-04-11T08:49:32.318Z,95813.88
2023-04-11T08:52:00.176Z,95813.47
2023-04-11T08:54:30.455Z,95809.16
2023-04-11T08:56:59.630Z,95796.91
2023-04-11T08:59:27.439Z,95816.25
2023-04-11T09:02:08.701Z,95821.22
2023-04-11T09:04:41.791Z,95819.84
2023-04-11T09:07:08.688Z,95823.41
2023-04-11T09:09:39.977Z,95811.09
2023-04-11T09:12:12.125Z,95821.69
2023-04-11T09:14:41.449Z,95834.00
2023-04-11T09:17:16.774Z,95833.38
2023-04-11T09:19:49.322Z,95837.59
2023-04-11T09:22:37.865Z,95842.38
2023-04-11T09:25:09.493Z,95839.16
2023-04-11T09:27:38.737Z,95852.31
2023-04-11T09:30:49.286Z,95834.47
2023-04-11T09:33:23.290Z,95845.78
2023-04-11T09:35:57.089Z,95855.00
2023-04-11T09:38:37.004Z,95852.78
2023-04-11T09:41:09.072Z,95848.84
2023-04-11T09:43:49.588Z,95860.72
2023-04-11T09:46:22.312Z,95862.63
2023-04-11T09:48:52.778Z,95865.03
2023-04-11T09:53:57.929Z,95872.03
2023-04-11T09:56:30.657Z,95879.28
2023-04-11T09:59:03.336Z,95875.69
2023-04-11T10:01:36.044Z,95875.16
2023-04-11T10:04:05.156Z,95893.91
2023-04-11T10:07:02.358Z,95889.41
2023-04-11T10:09:33.574Z,95886.00
2023-04-11T10:12:06.198Z,95890.03
2023-04-11T10:14:41.876Z,95891.88
2023-04-11T10:17:23.608Z,95886.94
2023-04-11T10:19:58.890Z,95870.25
2023-04-11T10:22:44.028Z,95899.34
2023-04-11T10:25:23.875Z,95886.44
2023-04-11T10:28:01.721Z,95889.22
2023-04-11T10:30:39.497Z,95896.13
2023-04-11T10:33:21.518Z,95889.78
2023-04-11T10:35:58.729Z,95883.31
2023-04-11T10:38:49.188Z,95889.66
2023-04-11T10:41:25.647Z,95893.34
2023-04-11T10:44:14.712Z,95895.56
2023-04-11T10:46:54.968Z,95897.69
2023-04-11T10:49:39.504Z,95884.88
2023-04-11T10:52:23.802Z,95891.56
2023-04-11T10:55:13.893Z,95896.31
2023-04-11T10:58:08.586Z,95902.13
2023-04-11T11:00:50.836Z,95893.81
2023-04-11T11:03:25.832Z,95893.91
2023-04-11T11:06:04.088Z,95909.28
2023-04-11T11:08:38.532Z,95899.50
2023-04-11T11:11:07.024Z,95890.28
2023-04-11T11:13:43.703Z,95896.25
2023-04-11T11:16:22.831Z,95893.41
2023-04-11T11:18:59.804Z,95909.31
2023-04-11T11:21:34.937Z,95903.97
2023-04-11T11:24:07.733Z,95898.44
2023-04-11T11:26:43.764Z,95911.16
2023-04-11T11:29:13.474Z,95907.66
2023-04-11T11:31:45.793Z,95906.16
2023-04-11T11:36:47.822Z,95909.59
2023-04-11T11:39:21.151Z,95915.97
2023-04-11T11:41:52.365Z,95919.19
2023-04-11T11:44:25.534Z,95919.66
2023-04-11T11:47:12.881Z,95916.56
2023-04-11T11:49:51.924Z,95935.00
2023-04-11T11:52:43.679Z,95917.16
2023-04-11T11:55:18.657Z,95928.13
2023-04-11T11:57:52.013Z,95917.06
2023-04-11T12:00:31.450Z,95930.81
2023-04-11T12:03:06.796Z,95938.78
2023-04-11T12:05:36.719Z,95942.22
2023-04-11T12:08:10.660Z,95923.72
2023-04-11T12:10:40.592Z,95940.47
2023-04-11T12:13:25.679Z,95919.56
2023-04-11T12:15:57.231Z,95939.81
2023-04-11T12:18:25.469Z,95923.72
2023-04-11T12:20:58.724Z,95910.91
2023-04-11T12:23:30.329Z,95903.97
2023-04-11T12:26:02.929Z,95922.75
2023-04-11T12:28:34.428Z,95921.63
2023-04-11T12:31:03.704Z,95913.88
2023-04-11T12:33:32.843Z,95920.84
2023-04-11T12:36:02.719Z,95917.84
2023-04-11T12:38:29.500Z,95916.16
2023-04-11T12:41:19.613Z,95914.94
2023-04-11T12:43:49.594Z,95902.66
2023-04-11T12:46:19.503Z,95902.75
2023-04-11T12:48:51.920Z,95912.16
2023-04-11T12:51:21.078Z,95916.31
2023-04-11T12:53:52.946Z,95905.13
2023-04-11T12:56:19.891Z,95923.72
2023-04-11T12:58:51.529Z,95910.25
2023-04-11T13:01:23.769Z,95913.03
2023-04-11T13:03:50.698Z,95912.88
2023-04-11T13:06:23.454Z,95907.56
2023-04-11T13:08:56.738Z,95907.88
2023-04-11T13:11:30.599Z,95901.03
2023-04-11T13:14:02.048Z,95898.16
2023-04-11T13:16:34.313Z,95905.78
2023-04-11T13:19:06.049Z,95900.44
2023-04-11T13:21:37.441Z,95894.13
2023-04-11T13:24:04.252Z,95910.81
2023-04-11T13:26:31.114Z,95898.97
2023-04-11T13:29:00.649Z,95897.34
2023-04-11T13:31:32.790Z,95878.63
2023-04-11T13:34:04.071Z,95883.47
2023-04-11T13:36:33.281Z,95897.13
2023-04-11T13:39:02.577Z,95888.91
2023-04-11T13:41:29.424Z,95896.34
2023-04-11T13:43:58.627Z,95874.03
2023-04-11T13:46:30.271Z,95879.81
2023-04-11T13:49:00.402Z,95876.63
2023-04-11T13:51:34.571Z,95863.28
2023-04-11T13:54:03.726Z,95854.53
2023-04-11T13:56:32.887Z,95877.50
2023-04-11T13:59:02.180Z,95872.28
2023-04-11T14:01:33.965Z,95860.09
2023-04-11T14:04:07.045Z,95869.91
2023-04-11T14:06:39.378Z,95858.91
2023-04-11T14:09:08.724Z,95854.97
2023-04-11T14:11:37.780Z,95862.22
2023-04-11T14:14:09.482Z,95861.41
2023-04-11T14:16:41.199Z,95867.97
2023-04-11T14:19:08.001Z,95861.88
2023-04-11T14:21:37.030Z,95862.53
2023-04-11T14:24:06.296Z,95851.22
2023-04-11T14:26:42.648Z,95856.59
2023-04-11T14:29:12.625Z,95863.66
2023-04-11T14:31:41.804Z,95878.47
2023-04-11T14:34:13.240Z,95858.41
2023-04-11T14:36:42.365Z,95869.88
2023-04-11T14:39:11.389Z,95863.34
2023-04-11T14:41:43.107Z,95854.38
2023-04-11T14:44:12.675Z,95875.28
2023-04-11T14:46:42.156Z,95867.94
2023-04-11T14:49:11.138Z,95863.78
2023-04-11T14:51:37.965Z,95870.13
2023-04-11T14:54:07.501Z,95853.34
2023-04-11T14:56:39.072Z,95858.03
2023-04-11T14:59:11.654Z,95866.44
2023-04-11T15:01:39.145Z,95866.72
2023-04-11T15:04:13.480Z,95873.09
2023-04-11T15:06:45.190Z,95867.63
2023-04-11T15:09:21.194Z,95864.44
2023-04-11T15:11:50.239Z,95873.44
2023-04-11T15:14:29.641Z,95864.88
2023-04-11T15:17:03.234Z,95870.81
2023-04-11T15:19:32.395Z,95866.25
2023-04-11T15:22:02.030Z,95849.09
2023-04-11T15:24:28.788Z,95839.94
2023-04-11T15:26:58.329Z,95851.81
2023-04-11T15:29:25.646Z,95848.59
2023-04-11T15:31:54.813Z,95843.94
2023-04-11T15:34:27.221Z,95837.72
2023-04-11T15:36:57.055Z,95818.16
2023-04-11T15:39:26.253Z,95829.31
2023-04-11T15:41:57.634Z,95817.88
2023-04-11T15:44:26.985Z,95825.81
2023-04-11T15:46:56.299Z,95827.84
2023-04-11T15:49:25.827Z,95833.56
2023-04-11T15:51:57.193Z,95825.16
2023-04-11T15:54:26.203Z,95828.16
2023-04-11T15:57:05.481Z,95835.19
2023-04-11T15:59:41.720Z,95830.97
2023-04-11T16:02:15.487Z,95832.59
2023-04-11T16:04:54.218Z,95830.41
2023-04-11T16:07:23.726Z,95838.31
2023-04-11T16:09:52.781Z,95819.88
2023-04-11T16:12:26.934Z,95833.91
2023-04-11T16:14:56.425Z,95807.88
2023-04-11T16:17:23.195Z,95822.88
2023-04-11T16:19:55.113Z,95834.16
2023-04-11T16:22:24.982Z,95841.34
2023-04-11T16:24:56.412Z,95842.16
2023-04-11T16:27:33.454Z,95838.72
2023-04-11T16:30:09.850Z,95840.03
2023-04-11T16:32:39.279Z,95841.34
2023-04-11T16:35:15.653Z,95851.78
2023-04-11T16:37:44.988Z,95844.50
2023-04-11T16:40:14.522Z,95857.16
2023-04-11T16:42:43.545Z,95833.06
2023-04-11T16:45:13.375Z,95852.41
2023-04-11T16:47:44.889Z,95843.66
2023-04-11T16:50:11.978Z,95856.38
2023-04-11T16:52:43.814Z,95848.13
2023-04-11T16:55:13.097Z,95851.94
2023-04-11T16:57:42.137Z,95859.84
2023-04-11T17:00:16.030Z,95848.25
2023-04-11T17:02:45.143Z,95856.72
2023-04-11T17:05:12.180Z,95852.41
2023-04-11T17:07:44.006Z,95856.81
2023-04-11T17:10:11.600Z,95845.06
2023-04-11T17:12:41.439Z,95858.94
2023-04-11T17:15:16.910Z,95859.50
2023-04-11T17:17:46.205Z,95852.41
2023-04-11T17:20:16.620Z,95864.00
2023-04-11T17:22:47.087Z,95856.91
2023-04-11T17:25:14.036Z,95871.91
2023-04-11T17:27:41.507Z,95855.97
2023-04-11T17:30:12.326Z,95864.06
2023-04-11T17:32:41.809Z,95850.50
2023-04-11T17:35:13.624Z,95858.97
2023-04-11T17:37:40.477Z,95872.56
2023-04-11T17:40:14.527Z,95871.94
2023-04-11T17:42:44.015Z,95866.31
2023-04-11T17:47:42.983Z,95856.56
2023-04-11T17:50:17.390Z,95864.19
2023-04-11T17:52:50.241Z,95871.38
2023-04-11T17:55:19.948Z,95877.00
2023-04-11T17:57:54.090Z,95874.50
2023-04-11T18:00:25.972Z,95873.13
2023-04-11T18:03:03.101Z,95851.88
2023-04-11T18:05:33.047Z,95867.97
2023-04-11T18:08:03.545Z,95863.53
2023-04-11T18:10:33.204Z,95862.72
2023-04-11T18:13:03.468Z,95867.41
2023-04-11T18:15:33.313Z,95877.34
2023-04-11T18:18:05.436Z,95886.19
2023-04-11T18:20:36.981Z,95881.75
2023-04-11T18:23:03.918Z,95886.00
2023-04-11T18:25:30.961Z,95882.50
2023-04-11T18:28:00.343Z,95897.13
2023-04-11T18:30:29.617Z,95883.31
2023-04-11T18:33:09.679Z,95911.28
2023-04-11T18:35:38.871Z,95905.59
2023-04-11T18:38:08.262Z,95909.28
2023-04-11T18:40:37.515Z,95909.81
2023-04-11T18:43:04.554Z,95908.44
2023-04-11T18:45:39.600Z,95890.13
2023-04-11T18:48:10.579Z,95901.53
2023-04-11T18:50:44.796Z,95897.00
2023-04-11T18:53:14.310Z,95909.25
2023-04-11T18:55:43.728Z,95912.84
2023-04-11T18:58:15.740Z,95903.28
2023-04-11T19:00:49.677Z,95915.59
2023-04-11T19:03:19.177Z,95914.59
2023-04-11T19:05:46.842Z,95908.88
2023-04-11T19:08:19.087Z,95899.75
2023-04-11T19:10:50.943Z,95900.50
2023-04-11T19:13:22.535Z,95915.69
2023-04-11T19:15:54.512Z,95898.47
2023-04-11T19:18:26.144Z,95892.66
2023-04-11T19:20:55.922Z,95895.81
2023-04-11T19:23:28.073Z,95896.63
2023-04-11T19:25:55.075Z,95889.81
2023-04-11T19:28:21.890Z,95893.94
2023-04-11T19:30:53.588Z,95904.63
2023-04-11T19:33:20.805Z,95901.03
2023-04-11T19:35:52.397Z,95907.47
2023-04-11T19:38:22.090Z,95903.06
2023-04-11T19:40:48.986Z,95902.09
2023-04-11T19:43:18.137Z,95894.75
2023-04-11T19:45:48.590Z,95891.09
2023-04-11T19:48:19.990Z,95891.91
2023-04-11T19:50:49.196Z,95894.66
2023-04-11T19:53:16.204Z,95891.59
2023-04-11T19:55:45.217Z,95870.53
2023-04-11T19:58:18.810Z,95882.88
2023-04-11T20:00:47.889Z,95878.47
2023-04-11T20:03:18.043Z,95884.34
2023-04-11T20:05:45.944Z,95884.44
2023-04-11T20:08:15.597Z,95866.78
2023-04-11T20:10:44.661Z,95879.09
2023-04-11T20:13:24.861Z,95873.38
2023-04-11T20:15:57.067Z,95865.09
2023-04-11T20:18:28.972Z,95880.34
2023-04-11T20:20:58.024Z,95873.94
2023-04-11T20:23:31.226Z,95873.19
2023-04-11T20:25:58.214Z,95868.97
2023-04-11T20:28:27.547Z,95860.13
2023-04-11T20:30:59.421Z,95864.44
2023-04-11T20:33:26.812Z,95869.53
2023-04-11T20:35:58.721Z,95865.94
2023-04-11T20:38:26.526Z,95868.06
2023-04-11T20:40:54.120Z,95858.84
2023-04-11T20:43:25.331Z,95855.28
2023-04-11T20:45:57.660Z,95856.56
2023-04-11T20:48:32.237Z,95861.16
2023-04-11T20:51:02.012Z,95861.69
2023-04-11T20:53:34.304Z,95857.94
2023-04-11T20:56:04.625Z,95863.81
2023-04-11T20:58:31.388Z,95855.72
2023-04-11T21:00:58.236Z,95857.84
2023-04-11T21:03:31.300Z,95851.22
2023-04-11T21:06:04.669Z,95850.59
2023-04-11T21:08:31.626Z,95852.47
2023-04-11T21:11:02.166Z,95849.81
2023-04-11T21:13:31.512Z,95850.69
2023-04-11T21:16:05.864Z,95851.31
2023-04-11T21:18:32.669Z,95842.41
2023-04-11T21:21:07.761Z,95841.38
2023-04-11T21:23:37.600Z,95844.72
2023-04-11T21:26:06.802Z,95846.09
2023-04-11T21:28:38.531Z,95838.81
2023-04-11T21:31:10.211Z,95830.75
2023-04-11T21:33:36.999Z,95831.56
2023-04-11T21:36:09.323Z,95839.81
2023-04-11T21:38:40.659Z,95831.19
2023-04-11T21:41:12.159Z,95819.69
2023-04-11T21:43:41.248Z,95820.44
2023-04-11T21:46:12.434Z,95820.44
2023-04-11T21:48:43.248Z,95816.13
2023-04-11T21:51:17.954Z,95821.50
2023-04-11T21:53:44.769Z,95795.19
2023-04-11T21:56:16.446Z,95795.75
2023-04-11T21:58:45.562Z,95799.31
2023-04-11T22:01:12.953Z,95800.69
2023-04-11T22:03:43.208Z,95800.50
2023-04-11T22:06:12.681Z,95791.66
2023-04-11T22:08:50.838Z,95795.03
2023-04-11T22:11:22.206Z,95781.69
2023-04-11T22:13:54.551Z,95785.91
2023-04-11T22:16:30.718Z,95786.28
2023-04-11T22:19:02.584Z,95768.78
2023-04-11T22:21:32.661Z,95774.47
2023-04-11T22:24:04.593Z,95769.19
2023-04-11T22:26:34.382Z,95755.97
2023-04-11T22:29:09.254Z,95761.53
2023-04-11T22:31:39.049Z,95763.53
2023-04-11T22:34:10.689Z,95761.56
2023-04-11T22:36:40.325Z,95753.44
2023-04-11T22:39:09.598Z,95757.34
2023-04-11T22:41:38.847Z,95749.59
2023-04-11T22:44:08.438Z,95751.38
2023-04-11T22:46:38.775Z,95734.97
2023-04-11T22:49:09.816Z,95734.00
2023-04-11T22:51:41.384Z,95724.31
2023-04-11T22:54:13.605Z,95725.47
2023-04-11T22:56:40.401Z,95731.47
2023-04-11T22:59:09.700Z,95735.06
2023-04-11T23:01:36.573Z,95723.69
2023-04-11T23:04:07.188Z,95715.19
2023-04-11T23:06:39.070Z,95716.75
2023-04-11T23:09:10.685Z,95711.69
2023-04-11T23:11:42.037Z,95710.00
2023-04-11T23:14:08.978Z,95706.34
2023-04-11T23:16:38.069Z,95699.91
2023-04-11T23:19:07.206Z,95693.94
2023-04-11T23:21:37.995Z,95699.09
2023-04-11T23:24:07.286Z,95694.56
2023-04-11T23:26:37.248Z,95691.94
2023-04-11T23:29:06.244Z,95682.75
2023-04-11T23:31:35.553Z,95674.88
2023-04-11T23:34:02.336Z,95668.34
2023-04-11T23:36:32.933Z,95663.84
2023-04-11T23:39:02.367Z,95661.84
2023-04-11T23:41:35.947Z,95651.75
2023-04-11T23:44:09.402Z,95655.63
2023-04-11T23:46:39.440Z,95654.91
2023-04-11T23:49:10.711Z,95646.81
2023-04-11T23:51:37.918Z,95647.00
2023-04-11T23:54:07.913Z,95638.47
2023-04-11T23:56:34.689Z,95632.06
2023-04-11T23:59:03.722Z,95622.91
